Air Resources Laboratory banner image
Air Resources Laboratory web site National Oceanic and Atmospheric Administration (NOAA)

nv metar


KBAM 200555Z AUTO 32003KT 10SM SCT042 BKN049 OVC065 M07/M13 A2992 RMK AO1=
KDRA 200555Z AUTO 36011KT 10SM BKN110 01/M16 A2991 RMK AO2 SLP124 T00061161
 10061 20006 51031 $=
KEKO 200556Z AUTO 00000KT 10SM OVC055 M09/M15 A2986 RMK AO2 SLP153 T10891150
 11033 21094 51023 $=
KELY 200553Z AUTO 28005KT CLR M15/M19 A2980 RMK AO2 SLP145 60000 T11501189
 11067 21156 52023 $=
KHTH 200555Z AUTO 01008KT 10SM BKN060 OVC070 M04/M13 A2998 RMK A01=
KINS 200558Z AUTO 00000KT 10SM BKN110 01/M18 A2990 RMK AO2 SLP124 T00081180
 10064 21002 52033 $=
KLAS 200556Z 33015G25KT 10SM CLR 06/M16 A2991 RMK AO2 PK WND 33026/0502 SLP128
 T00561161 10106 20056 53034=
KLOL 200553Z AUTO 00000KT 10SM CLR M08/M15 A3000 RMK AO2 SLP190 T10781150 11006
 21094 53025=
KLSV 200558Z AUTO 29017G22KT 10SM CLR 05/M13 A2991 RMK AO2 SLP130 T00461133
 10097 20043 52036 $=
KNFL 200556Z AUTO 30006KT 10SM FEW080 M06/M10 A3000 RMK AO2 SLP129 60000
 T10611100 10006 21072 53026=
KP68 200553Z AUTO 17003KT M13/M16 A2983 RMK AO1 SLP145 T11281156 11067 21144
 51017=
KRNO 200555Z 20004KT 10SM CLR M06/M12 A2999 RMK AO2 SLP182 60000 T10561117
 11006 21061 53023 $=
KTPH 200556Z AUTO 01004KT 10SM CLR M08/M16 A2989 RMK AO2 SLP154 T10831161 11033
 21083 53021=
KVGT 200553Z AUTO 33012KT 10SM CLR 04/M17 A2990 RMK AO2 SLP148 T00441167 10100
 20044 51037=
KWMC 200556Z AUTO 00000KT 10SM OVC060 M08/M16 A2996 RMK AO2 SLP175 T10781161
 11006 21094 53019=